Time;durP1;ratioP1;P1;durP2;ratioP2;P2;SDS_P1;SDS_P2;PMS_P1;PMS_P2;Temp;Humidity;BMP_temperature;BMP_pressure;BME280_temperature;BME280_humidity;BME280_pressure;Samples;Min_cycle;Max_cycle;Signal;HPM_P1;HPM_P2
2022/10/29 04:00:56;;;;;;;3.57;3.27;;;13.20;99.90;;;;;;6054794;23;20482;-71
2022/10/29 04:03:23;;;;;;;9.20;3.97;;;13.10;99.90;;;;;;6092635;23;20434;-72
2022/10/29 04:05:51;;;;;;;11.13;3.77;;;13.20;99.90;;;;;;6093315;23;20490;-72
2022/10/29 04:08:18;;;;;;;5.83;4.27;;;13.20;99.90;;;;;;6093343;23;20430;-72
2022/10/29 04:10:45;;;;;;;10.13;2.90;;;13.10;99.90;;;;;;6093652;23;20959;-72
2022/10/29 04:13:12;;;;;;;4.00;3.20;;;13.10;99.90;;;;;;6091926;23;20428;-72
2022/10/29 04:15:39;;;;;;;5.00;4.50;;;13.10;99.90;;;;;;6093416;23;20414;-72
2022/10/29 04:18:08;;;;;;;3.70;3.40;;;13.10;99.90;;;;;;6094083;23;20790;-71
2022/10/29 04:20:35;;;;;;;3.47;3.37;;;13.00;99.90;;;;;;6094433;23;20445;-72
2022/10/29 04:23:02;;;;;;;4.10;3.80;;;13.00;99.90;;;;;;6094318;23;20429;-71
2022/10/29 04:25:29;;;;;;;5.13;4.00;;;12.90;99.90;;;;;;6093564;23;20448;-72
2022/10/29 04:27:56;;;;;;;8.53;4.40;;;12.90;99.90;;;;;;6093721;23;20427;-72
2022/10/29 04:30:23;;;;;;;7.83;3.03;;;12.80;99.90;;;;;;6094457;23;20954;-71
2022/10/29 04:32:50;;;;;;;9.87;3.50;;;12.80;99.90;;;;;;6092315;23;20434;-72
2022/10/29 04:35:18;;;;;;;11.63;3.63;;;12.70;99.90;;;;;;6094127;23;20427;-72
2022/10/29 04:37:45;;;;;;;5.10;4.80;;;12.70;99.90;;;;;;6092989;23;20545;-71
2022/10/29 04:40:12;;;;;;;4.57;4.13;;;12.70;99.90;;;;;;6093791;23;20969;-71
2022/10/29 04:42:39;;;;;;;3.73;3.40;;;12.70;99.90;;;;;;6092065;23;20550;-71
2022/10/29 04:45:08;;;;;;;6.57;3.67;;;12.60;99.90;;;;;;6094419;23;20454;-72
2022/10/29 04:47:34;;;;;;;5.30;3.77;;;12.60;99.90;;;;;;6093868;23;20453;-72
2022/10/29 04:50:01;;;;;;;4.57;3.35;;;12.60;99.90;;;;;;6094642;23;20429;-71
2022/10/29 04:52:29;;;;;;;22.88;5.22;;;12.60;99.90;;;;;;6093505;23;20214;-72
2022/10/29 04:54:56;;;;;;;4.60;3.90;;;12.60;99.90;;;;;;6092563;23;20254;-72
2022/10/29 04:57:22;;;;;;;6.68;3.63;;;12.60;99.90;;;;;;6092924;23;20186;-72
2022/10/29 04:59:49;;;;;;;9.67;4.07;;;12.60;99.90;;;;;;6094532;23;20517;-72
2022/10/29 05:02:16;;;;;;;13.20;3.45;;;12.60;99.90;;;;;;6092718;23;20461;-72
2022/10/29 05:04:42;;;;;;;5.43;3.85;;;12.60;99.90;;;;;;6092488;23;20218;-72
2022/10/29 05:07:09;;;;;;;6.18;4.38;;;12.60;99.90;;;;;;6092247;23;20658;-72
2022/10/29 05:09:37;;;;;;;9.65;4.97;;;12.70;99.90;;;;;;6094238;23;20187;-72
2022/10/29 05:12:04;;;;;;;11.10;4.43;;;12.80;99.90;;;;;;6092253;23;20214;-72
2022/10/29 05:14:31;;;;;;;7.03;4.47;;;12.80;99.90;;;;;;6102146;23;20508;-72
2022/10/29 05:16:57;;;;;;;8.77;7.17;;;12.90;99.90;;;;;;6093771;23;20434;-70
2022/10/29 05:19:24;;;;;;;6.73;6.23;;;12.90;99.90;;;;;;6094389;23;20434;-71
2022/10/29 05:21:51;;;;;;;9.73;4.43;;;13.00;99.90;;;;;;6092717;23;20455;-72
2022/10/29 05:24:18;;;;;;;6.57;4.90;;;13.00;99.90;;;;;;6093052;23;20501;-71
2022/10/29 05:26:46;;;;;;;6.60;4.00;;;13.00;99.90;;;;;;6093731;23;20433;-72
2022/10/29 05:29:12;;;;;;;7.07;5.37;;;13.10;99.90;;;;;;6092525;23;20441;-72
2022/10/29 05:31:39;;;;;;;4.30;3.80;;;13.10;99.90;;;;;;6093961;23;20497;-72
2022/10/29 05:34:06;;;;;;;10.97;5.40;;;13.10;99.90;;;;;;6093257;23;20434;-70
2022/10/29 05:36:32;;;;;;;4.80;3.77;;;13.20;99.90;;;;;;6094146;23;20435;-72
2022/10/29 05:38:59;;;;;;;4.77;4.37;;;13.20;99.90;;;;;;6093894;23;20430;-72
2022/10/29 05:41:26;;;;;;;3.03;2.80;;;13.20;99.90;;;;;;6093054;23;20957;-72
2022/10/29 05:43:54;;;;;;;4.20;3.80;;;13.30;99.90;;;;;;6091750;23;20455;-72
2022/10/29 05:46:20;;;;;;;6.00;4.50;;;13.30;99.90;;;;;;6092865;23;20427;-72
2022/10/29 05:48:47;;;;;;;9.90;4.03;;;13.30;99.90;;;;;;6093479;23;20544;-72
2022/10/29 05:51:14;;;;;;;3.63;3.33;;;13.30;99.90;;;;;;6092810;23;20995;-72
2022/10/29 05:53:40;;;;;;;4.27;3.97;;;13.30;99.90;;;;;;6093013;23;20431;-72
2022/10/29 05:56:07;;;;;;;3.50;3.20;;;13.40;99.90;;;;;;6094115;23;20434;-72
2022/10/29 05:58:34;;;;;;;5.93;3.37;;;13.40;99.90;;;;;;6092274;23;20428;-71
2022/10/29 06:01:06;;;;;;;4.40;4.17;;;13.40;99.90;;;;;;6091026;23;20465;-71
2022/10/29 06:03:32;;;;;;;10.00;3.30;;;13.40;99.90;;;;;;6092033;23;20411;-70
2022/10/29 06:05:59;;;;;;;4.60;3.43;;;13.40;99.90;;;;;;6093645;23;20455;-72
2022/10/29 06:08:26;;;;;;;4.67;4.27;;;13.40;99.90;;;;;;6092874;23;20426;-72
2022/10/29 06:10:53;;;;;;;9.03;4.80;;;13.40;99.90;;;;;;6093447;23;20451;-71
2022/10/29 06:13:21;;;;;;;5.80;4.07;;;13.40;99.90;;;;;;6091999;23;20426;-72
2022/10/29 06:15:49;;;;;;;6.80;3.80;;;13.40;99.90;;;;;;6093417;23;20423;-71
2022/10/29 06:18:17;;;;;;;4.30;3.90;;;13.40;99.90;;;;;;6092899;23;20740;-72
2022/10/29 06:20:44;;;;;;;4.47;4.10;;;13.40;99.90;;;;;;6093332;23;20454;-72
2022/10/29 06:23:11;;;;;;;5.30;3.27;;;13.30;99.90;;;;;;6092609;23;20492;-70
2022/10/29 06:25:38;;;;;;;3.90;3.50;;;13.40;99.90;;;;;;6093843;23;20558;-72
2022/10/29 06:28:06;;;;;;;3.90;3.60;;;13.40;99.90;;;;;;6093025;23;20434;-72
2022/10/29 06:30:35;;;;;;;4.07;3.20;;;13.40;99.90;;;;;;6095316;23;20783;-72
2022/10/29 06:33:02;;;;;;;7.37;5.03;;;13.40;99.90;;;;;;6093478;23;20426;-71
2022/10/29 06:35:31;;;;;;;6.00;4.03;;;13.30;99.90;;;;;;6095258;23;20430;-71
2022/10/29 06:37:58;;;;;;;3.60;3.30;;;13.30;99.90;;;;;;6094552;23;20437;-72
2022/10/29 06:40:25;;;;;;;8.27;3.80;;;13.30;99.90;;;;;;6095261;23;20431;-72
2022/10/29 06:42:58;;;;;;;12.07;4.83;;;13.30;99.90;;;;;;6093233;23;20780;-72
2022/10/29 06:45:25;;;;;;;7.57;4.13;;;13.30;99.90;;;;;;6095158;23;20434;-72
2022/10/29 06:47:51;;;;;;;6.43;4.43;;;13.30;99.90;;;;;;6094824;23;20431;-72
2022/10/29 06:50:18;;;;;;;4.40;3.30;;;13.20;99.90;;;;;;6095091;23;20434;-71
2022/10/29 06:52:54;;;;;;;4.80;4.40;;;13.30;99.90;;;;;;6093099;23;20881;-70
2022/10/29 06:55:20;;;;;;;6.77;4.13;;;13.30;99.90;;;;;;6095258;23;20804;-71
2022/10/29 06:57:47;;;;;;;5.53;4.40;;;13.30;99.90;;;;;;6093416;23;20437;-70
2022/10/29 07:00:14;;;;;;;4.40;4.03;;;13.40;99.90;;;;;;6094524;23;20433;-71
2022/10/29 07:02:40;;;;;;;3.43;3.23;;;13.40;99.90;;;;;;6094708;23;20438;-72
2022/10/29 07:05:08;;;;;;;6.70;5.30;;;13.50;99.90;;;;;;6095271;23;20447;-71
2022/10/29 07:07:34;;;;;;;4.03;3.70;;;13.40;99.90;;;;;;6094617;23;20435;-71
2022/10/29 07:10:02;;;;;;;6.40;4.40;;;13.50;99.90;;;;;;6093054;23;20427;-71
2022/10/29 07:12:29;;;;;;;5.07;4.70;;;13.50;99.90;;;;;;6093580;23;20451;-71
2022/10/29 07:14:56;;;;;;;7.40;5.07;;;13.60;99.90;;;;;;6093746;23;20427;-72
2022/10/29 07:17:22;;;;;;;8.20;4.57;;;13.60;99.90;;;;;;6096136;23;20427;-72
2022/10/29 07:19:49;;;;;;;10.57;5.23;;;13.70;99.90;;;;;;6098314;23;20428;-72
2022/10/29 07:22:16;;;;;;;6.83;5.33;;;13.70;99.90;;;;;;6095889;23;20447;-72
2022/10/29 07:24:42;;;;;;;5.53;4.70;;;13.80;99.90;;;;;;6096061;23;20453;-71
2022/10/29 07:27:10;;;;;;;7.33;3.93;;;13.70;99.90;;;;;;6093168;23;20428;-71
2022/10/29 07:29:37;;;;;;;5.33;4.80;;;13.80;99.90;;;;;;6094054;23;20858;-72
2022/10/29 07:32:04;;;;;;;9.53;5.10;;;13.80;99.90;;;;;;6094170;23;20803;-72
2022/10/29 07:34:31;;;;;;;4.17;3.80;;;13.90;99.90;;;;;;6094450;23;20803;-71
2022/10/29 07:36:58;;;;;;;5.73;5.20;;;14.00;99.90;;;;;;6094987;23;20432;-71
2022/10/29 07:39:24;;;;;;;10.97;5.90;;;14.00;99.90;;;;;;6094838;23;20428;-73
2022/10/29 07:41:51;;;;;;;5.60;4.97;;;14.00;99.90;;;;;;6088848;23;20445;-71
2022/10/29 07:44:19;;;;;;;8.03;3.50;;;14.00;99.90;;;;;;6091553;23;20438;-69
2022/10/29 07:46:46;;;;;;;8.40;4.50;;;14.00;99.90;;;;;;6095162;23;20435;-69
2022/10/29 07:49:13;;;;;;;8.07;4.20;;;14.10;99.90;;;;;;6093640;23;20427;-69
2022/10/29 07:51:39;;;;;;;5.00;4.20;;;14.10;99.90;;;;;;6094999;23;20444;-69
2022/10/29 07:54:06;;;;;;;11.87;4.67;;;14.20;99.90;;;;;;6094908;23;20774;-69
2022/10/29 07:56:33;;;;;;;5.30;4.80;;;14.20;99.90;;;;;;6096016;23;20489;-70
2022/10/29 07:59:00;;;;;;;9.30;5.00;;;14.10;99.90;;;;;;6095292;23;20424;-69
2022/10/29 08:01:27;;;;;;;6.80;4.43;;;14.10;99.90;;;;;;6094646;23;20492;-70
2022/10/29 08:03:54;;;;;;;5.47;4.20;;;14.10;99.90;;;;;;6098414;23;20465;-69
2022/10/29 08:06:21;;;;;;;8.20;4.87;;;14.20;99.90;;;;;;6099614;23;20455;-69
2022/10/29 08:08:47;;;;;;;8.93;4.33;;;14.20;99.90;;;;;;6102531;23;20490;-69
2022/10/29 08:11:14;;;;;;;10.93;6.80;;;14.20;99.90;;;;;;6104353;23;20442;-68
2022/10/29 08:13:41;;;;;;;19.03;4.93;;;14.30;99.90;;;;;;6095848;23;20434;-70
2022/10/29 08:16:08;;;;;;;6.33;5.30;;;14.30;99.90;;;;;;6094668;23;20428;-72
2022/10/29 08:18:36;;;;;;;7.97;5.40;;;14.40;99.90;;;;;;6096663;23;20423;-69
2022/10/29 08:21:04;;;;;;;5.40;4.80;;;14.50;99.90;;;;;;6095909;23;20445;-69
2022/10/29 08:23:31;;;;;;;3.37;3.13;;;14.60;99.90;;;;;;6094359;23;20451;-69
2022/10/29 08:25:58;;;;;;;4.17;3.73;;;14.60;99.90;;;;;;6095638;23;20479;-70
2022/10/29 08:28:24;;;;;;;3.80;3.50;;;14.60;99.90;;;;;;6094442;23;20434;-70
2022/10/29 08:30:51;;;;;;;5.73;5.17;;;14.70;99.90;;;;;;6093800;23;20465;-71
2022/10/29 08:33:19;;;;;;;4.50;4.20;;;14.70;99.90;;;;;;6094654;23;20435;-70
2022/10/29 08:35:47;;;;;;;12.83;3.90;;;14.80;99.90;;;;;;6095681;23;20430;-70
2022/10/29 08:38:14;;;;;;;9.20;4.80;;;14.90;99.90;;;;;;6095352;23;20424;-70
2022/10/29 08:41:00;;;;;;;3.83;3.37;;;14.90;99.90;;;;;;6095668;23;20453;-70
2022/10/29 08:43:47;;;;;;;15.63;4.87;;;14.90;99.90;;;;;;6095112;23;20410;-70
2022/10/29 08:46:19;;;;;;;9.00;4.70;;;15.00;99.90;;;;;;6094866;23;20442;-69
2022/10/29 08:48:50;;;;;;;5.20;4.87;;;15.10;99.90;;;;;;6095567;23;20418;-70
2022/10/29 08:51:23;;;;;;;6.63;4.43;;;15.10;99.90;;;;;;6094321;23;20444;-68
2022/10/29 08:53:51;;;;;;;4.20;3.80;;;15.10;99.90;;;;;;6094929;23;20475;-69
2022/10/29 08:56:21;;;;;;;6.13;3.97;;;15.00;99.90;;;;;;6094165;23;20441;-70
2022/10/29 08:58:55;;;;;;;6.40;4.70;;;15.10;99.90;;;;;;6094613;23;20432;-69
2022/10/29 09:01:23;;;;;;;6.23;4.73;;;15.20;99.90;;;;;;6093339;23;20454;-70
2022/10/29 09:03:51;;;;;;;5.73;5.27;;;15.30;99.90;;;;;;6092714;23;20701;-70
2022/10/29 09:06:24;;;;;;;6.50;5.60;;;15.50;99.90;;;;;;6092766;23;20484;-70
2022/10/29 09:09:02;;;;;;;5.83;5.43;;;15.60;99.90;;;;;;6093158;23;20468;-68
2022/10/29 09:11:50;;;;;;;5.17;4.77;;;15.70;99.90;;;;;;6093652;23;20446;-69
2022/10/29 09:14:37;;;;;;;5.03;4.50;;;15.90;99.90;;;;;;6093728;23;20735;-70
2022/10/29 09:17:13;;;;;;;11.87;5.10;;;15.90;99.90;;;;;;6094446;23;20438;-69
2022/10/29 09:19:52;;;;;;;9.60;6.00;;;16.00;99.90;;;;;;6093492;23;20417;-69
2022/10/29 09:22:27;;;;;;;4.40;3.83;;;16.00;99.90;;;;;;6092268;23;20474;-69
2022/10/29 09:25:02;;;;;;;3.53;3.33;;;16.00;99.90;;;;;;6093033;23;20410;-69
2022/10/29 09:27:39;;;;;;;5.17;4.77;;;16.00;99.90;;;;;;6093985;23;20825;-70
2022/10/29 09:30:11;;;;;;;4.40;4.00;;;16.00;99.90;;;;;;6094699;23;20410;-69
2022/10/29 09:32:40;;;;;;;4.30;4.00;;;16.10;99.90;;;;;;6092279;23;20413;-69
2022/10/29 09:35:14;;;;;;;5.37;4.77;;;16.10;99.90;;;;;;6088858;23;20426;-69
2022/10/29 09:37:47;;;;;;;8.03;5.77;;;16.20;99.90;;;;;;6092858;23;20411;-70
2022/10/29 09:40:22;;;;;;;3.77;3.63;;;16.30;99.90;;;;;;6093080;23;20422;-69
2022/10/29 09:42:50;;;;;;;3.57;3.37;;;16.30;99.90;;;;;;6092853;23;20410;-68
2022/10/29 09:45:20;;;;;;;5.60;2.80;;;16.40;99.90;;;;;;6093399;23;20965;-69
2022/10/29 09:47:55;;;;;;;3.60;3.30;;;16.40;99.90;;;;;;6095092;23;20411;-69
2022/10/29 09:50:29;;;;;;;5.87;3.90;;;16.50;99.90;;;;;;6094227;23;20466;-68
2022/10/29 09:52:57;;;;;;;8.60;3.47;;;16.50;99.90;;;;;;6094916;23;20418;-71
2022/10/29 09:55:28;;;;;;;5.73;4.00;;;16.40;99.90;;;;;;6095181;23;20753;-69
2022/10/29 09:57:57;;;;;;;6.93;3.80;;;16.50;99.90;;;;;;6095819;23;20748;-69
2022/10/29 10:00:26;;;;;;;4.50;3.13;;;16.40;99.90;;;;;;6093370;23;20428;-71
2022/10/29 10:02:59;;;;;;;4.90;3.90;;;16.40;99.90;;;;;;6093452;23;20756;-69
2022/10/29 10:05:27;;;;;;;3.43;3.20;;;16.40;99.90;;;;;;6095448;23;20442;-69
2022/10/29 10:08:08;;;;;;;3.97;3.67;;;16.40;99.90;;;;;;6095785;23;20433;-68
2022/10/29 10:10:39;;;;;;;3.67;3.30;;;16.50;99.90;;;;;;6094222;23;20529;-69
2022/10/29 10:13:06;;;;;;;4.07;3.60;;;16.60;99.90;;;;;;6096411;23;20806;-69
2022/10/29 10:15:35;;;;;;;3.10;2.93;;;16.80;99.90;;;;;;6096160;23;20421;-68
2022/10/29 10:18:03;;;;;;;8.50;3.80;;;16.90;99.90;;;;;;6094980;23;20437;-68
2022/10/29 10:20:33;;;;;;;4.20;3.87;;;16.90;99.90;;;;;;6093911;23;20426;-68
2022/10/29 10:23:00;;;;;;;3.67;3.20;;;17.10;99.90;;;;;;6093796;23;20416;-69
2022/10/29 10:25:37;;;;;;;6.27;5.57;;;17.20;99.90;;;;;;6094558;23;20450;-69
2022/10/29 10:28:14;;;;;;;5.10;3.93;;;17.30;99.90;;;;;;6094337;23;20450;-69
2022/10/29 10:30:42;;;;;;;4.30;4.00;;;17.40;99.90;;;;;;6094923;23;20815;-69
2022/10/29 10:33:22;;;;;;;8.20;5.70;;;17.50;99.90;;;;;;6094164;23;20426;-70
2022/10/29 10:35:48;;;;;;;8.43;4.40;;;17.50;99.90;;;;;;6094461;23;20414;-70
2022/10/29 10:38:15;;;;;;;6.70;5.07;;;17.50;99.90;;;;;;6095019;23;20427;-70
2022/10/29 10:40:43;;;;;;;6.60;4.40;;;17.60;99.90;;;;;;6094602;23;20451;-70
2022/10/29 10:43:20;;;;;;;6.90;4.93;;;17.50;99.90;;;;;;6095828;23;20437;-70
2022/10/29 10:45:53;;;;;;;8.20;4.40;;;17.60;99.90;;;;;;6093846;23;20434;-70
2022/10/29 10:48:22;;;;;;;11.80;4.80;;;17.70;99.90;;;;;;6095634;23;20419;-70
2022/10/29 10:50:48;;;;;;;12.37;3.90;;;17.80;99.90;;;;;;6094566;23;20457;-70
2022/10/29 10:53:19;;;;;;;4.87;4.17;;;17.90;99.90;;;;;;6093889;23;20905;-70
2022/10/29 10:55:51;;;;;;;10.30;4.33;;;18.00;99.90;;;;;;6092977;23;20414;-70
2022/10/29 10:58:25;;;;;;;5.53;4.00;;;18.00;99.90;;;;;;6094308;23;20423;-70
2022/10/29 11:00:57;;;;;;;3.30;3.10;;;18.10;99.90;;;;;;6094380;23;20537;-70
2022/10/29 11:03:31;;;;;;;5.70;3.43;;;18.10;99.90;;;;;;6093952;23;20443;-68
2022/10/29 11:06:03;;;;;;;6.70;3.60;;;18.20;99.90;;;;;;6093298;23;20545;-68
2022/10/29 11:08:36;;;;;;;3.77;3.47;;;18.30;99.90;;;;;;6094302;23;20412;-69
2022/10/29 11:11:10;;;;;;;6.60;4.07;;;18.30;99.90;;;;;;6093802;23;20470;-69
2022/10/29 11:13:40;;;;;;;10.77;3.70;;;18.40;99.90;;;;;;6093562;23;20430;-69
2022/10/29 11:16:13;;;;;;;6.17;3.80;;;18.40;99.90;;;;;;6094581;23;20434;-69
2022/10/29 11:18:45;;;;;;;3.07;2.77;;;18.50;99.90;;;;;;6095065;23;20435;-69
2022/10/29 11:21:16;;;;;;;4.87;4.23;;;18.50;99.90;;;;;;6092034;23;20455;-68
2022/10/29 11:23:51;;;;;;;5.20;3.30;;;18.60;99.90;;;;;;6092147;23;20410;-68
2022/10/29 11:26:27;;;;;;;4.43;4.10;;;18.70;99.90;;;;;;6094613;23;20440;-70
2022/10/29 11:28:58;;;;;;;3.13;2.93;;;18.70;99.90;;;;;;6095024;23;20420;-70
2022/10/29 11:31:32;;;;;;;4.97;3.37;;;18.60;99.90;;;;;;6093290;23;20522;-68
2022/10/29 11:34:06;;;;;;;11.40;2.67;;;18.70;99.90;;;;;;6094262;23;20416;-70
2022/10/29 11:36:39;;;;;;;3.50;2.40;;;18.70;99.90;;;;;;6091798;23;20412;-70
2022/10/29 11:39:10;;;;;;;2.80;2.60;;;18.70;99.90;;;;;;6103097;23;20420;-70
2022/10/29 11:41:44;;;;;;;5.73;3.60;;;18.70;99.90;;;;;;6100357;23;20512;-69
2022/10/29 11:44:13;;;;;;;4.07;3.00;;;18.70;99.90;;;;;;6102664;23;20424;-69
2022/10/29 11:46:50;;;;;;;3.20;3.00;;;18.70;99.90;;;;;;6097766;23;20454;-70
2022/10/29 11:49:33;;;;;;;5.20;2.93;;;18.70;99.90;;;;;;6104077;23;20420;-70
2022/10/29 11:52:08;;;;;;;2.70;2.60;;;18.70;99.90;;;;;;6094507;23;20453;-69
2022/10/29 11:54:49;;;;;;;2.53;2.43;;;18.70;99.90;;;;;;6093387;23;20416;-70
2022/10/29 11:57:23;;;;;;;2.83;2.40;;;18.80;99.90;;;;;;6092622;23;20413;-70
2022/10/29 12:00:05;;;;;;;2.67;2.57;;;18.80;99.90;;;;;;6094529;23;20419;-69
2022/10/29 12:02:51;;;;;;;2.93;2.23;;;18.80;99.90;;;;;;6103037;23;20456;-69
2022/10/29 12:05:25;;;;;;;2.93;2.73;;;18.80;99.90;;;;;;6092373;23;20911;-69
2022/10/29 12:08:07;;;;;;;7.83;3.03;;;18.80;99.90;;;;;;6094419;23;20405;-68
2022/10/29 12:10:44;;;;;;;3.73;3.40;;;18.90;99.90;;;;;;6094359;23;20453;-69
2022/10/29 12:13:22;;;;;;;3.60;2.70;;;18.80;99.90;;;;;;6093180;23;20421;-70
2022/10/29 12:16:04;;;;;;;3.17;2.97;;;18.80;99.90;;;;;;6092254;23;20413;-70
2022/10/29 12:18:41;;;;;;;3.47;3.23;;;18.90;99.90;;;;;;6094540;23;20436;-70
2022/10/29 12:21:16;;;;;;;2.30;2.20;;;18.90;99.90;;;;;;6092533;23;20972;-70
2022/10/29 12:23:56;;;;;;;5.00;4.50;;;19.00;99.90;;;;;;6091857;23;20423;-69
2022/10/29 12:26:31;;;;;;;2.97;2.70;;;19.10;99.90;;;;;;6093376;23;20433;-70
2022/10/29 12:29:08;;;;;;;2.37;2.00;;;19.00;99.90;;;;;;6093737;23;20924;-69
2022/10/29 12:31:44;;;;;;;3.07;2.87;;;19.00;99.90;;;;;;6094809;23;20455;-69
2022/10/29 12:34:21;;;;;;;2.20;2.10;;;18.90;99.90;;;;;;6093248;23;20510;-69
2022/10/29 12:36:54;;;;;;;2.67;2.37;;;18.90;99.90;;;;;;6091469;23;20712;-69
2022/10/29 12:39:27;;;;;;;2.20;2.07;;;18.90;99.90;;;;;;6092132;23;20414;-69
2022/10/29 12:42:01;;;;;;;2.60;2.50;;;18.90;99.90;;;;;;6094110;23;20466;-69
2022/10/29 12:44:39;;;;;;;3.20;2.37;;;18.80;99.90;;;;;;6092553;23;20432;-69
2022/10/29 12:47:13;;;;;;;2.53;2.17;;;18.80;99.90;;;;;;6093070;23;20444;-69
2022/10/29 12:49:52;;;;;;;2.53;2.43;;;18.70;99.90;;;;;;6094131;23;20406;-69
2022/10/29 12:52:28;;;;;;;2.90;2.70;;;18.80;99.90;;;;;;6092612;23;20445;-69
2022/10/29 12:54:56;;;;;;;4.40;2.93;;;18.90;99.90;;;;;;6092049;23;20912;-69
2022/10/29 12:57:31;;;;;;;5.80;2.77;;;18.90;99.90;;;;;;6092948;23;20433;-69
2022/10/29 13:00:33;;;;;;;2.37;2.17;;;19.00;99.90;;;;;;6093180;23;20448;-69
2022/10/29 13:03:00;;;;;;;3.90;2.50;;;19.00;99.90;;;;;;6092815;23;20404;-69
2022/10/29 13:05:42;;;;;;;1.80;1.70;;;19.00;99.90;;;;;;6091658;23;20425;-69
2022/10/29 13:08:27;;;;;;;4.97;2.43;;;18.90;99.90;;;;;;6093861;23;20448;-69
2022/10/29 13:10:55;;;;;;;2.00;1.90;;;19.00;99.90;;;;;;6091776;23;20452;-69
2022/10/29 13:13:38;;;;;;;4.20;2.33;;;19.00;99.90;;;;;;6091036;23;20503;-69
2022/10/29 13:16:13;;;;;;;6.97;2.83;;;19.10;99.90;;;;;;6092945;23;20421;-68
2022/10/29 13:18:51;;;;;;;5.30;2.70;;;19.10;99.90;;;;;;6093617;23;20412;-69
2022/10/29 13:21:55;;;;;;;2.67;2.57;;;19.10;99.90;;;;;;6092426;23;20452;-68
2022/10/29 13:24:22;;;;;;;2.33;2.23;;;19.20;99.90;;;;;;6090953;23;20748;-68
2022/10/29 13:26:58;;;;;;;2.30;2.20;;;19.20;99.90;;;;;;6093427;23;20456;-69
2022/10/29 13:29:48;;;;;;;4.63;2.60;;;19.10;99.90;;;;;;6092277;23;20773;-69
2022/10/29 13:32:35;;;;;;;3.43;3.13;;;19.20;99.90;;;;;;6092444;23;20445;-69
2022/10/29 13:35:04;;;;;;;10.47;2.67;;;19.20;99.90;;;;;;6091879;23;20451;-68
2022/10/29 13:38:11;;;;;;;2.60;2.03;;;19.10;99.90;;;;;;6103593;23;20432;-69
2022/10/29 13:41:00;;;;;;;2.23;2.13;;;19.20;99.90;;;;;;6093305;23;20505;-69
2022/10/29 13:43:27;;;;;;;1.93;1.83;;;19.20;99.90;;;;;;6091229;23;20420;-69
2022/10/29 13:46:09;;;;;;;2.60;2.40;;;19.10;99.90;;;;;;6092900;23;20448;-68
2022/10/29 13:48:38;;;;;;;2.93;2.03;;;19.10;99.90;;;;;;6092930;23;20408;-69
2022/10/29 13:51:08;;;;;;;3.63;3.33;;;19.10;99.90;;;;;;6092817;23;20452;-69
2022/10/29 13:53:42;;;;;;;2.87;1.87;;;19.10;99.90;;;;;;6092251;23;20420;-69
2022/10/29 13:56:11;;;;;;;3.67;1.67;;;19.20;99.90;;;;;;6093790;23;20414;-69
2022/10/29 13:58:42;;;;;;;8.70;3.03;;;19.20;99.90;;;;;;6092794;23;20437;-69
2022/10/29 14:01:14;;;;;;;2.07;2.07;;;19.30;99.90;;;;;;6092668;23;20453;-68
2022/10/29 14:03:55;;;;;;;3.27;3.07;;;19.40;99.90;;;;;;6091785;23;21291;-69
2022/10/29 14:06:26;;;;;;;5.73;2.87;;;19.50;99.90;;;;;;6093178;23;20428;-69
2022/10/29 14:08:59;;;;;;;2.80;2.57;;;19.40;99.90;;;;;;6093226;23;20445;-69
2022/10/29 14:11:32;;;;;;;6.23;2.50;;;19.40;99.90;;;;;;6093573;23;20452;-69
2022/10/29 14:14:02;;;;;;;1.87;1.77;;;19.40;99.90;;;;;;6090304;23;20413;-69
2022/10/29 14:16:31;;;;;;;9.63;2.77;;;19.30;99.90;;;;;;6093463;23;20838;-68
2022/10/29 14:19:13;;;;;;;3.00;2.67;;;19.20;99.90;;;;;;6093714;23;20425;-69
2022/10/29 14:21:39;;;;;;;10.13;2.83;;;19.20;99.90;;;;;;6092531;23;20456;-69
2022/10/29 14:24:08;;;;;;;2.47;2.37;;;19.20;99.90;;;;;;6092730;23;20438;-69
2022/10/29 14:26:37;;;;;;;2.77;2.10;;;19.30;99.90;;;;;;6094076;23;20530;-71
2022/10/29 14:29:14;;;;;;;1.97;1.87;;;19.20;99.90;;;;;;6091282;23;20729;-70
2022/10/29 14:31:41;;;;;;;2.70;2.60;;;19.20;99.90;;;;;;6092250;23;20454;-71
2022/10/29 14:34:23;;;;;;;2.87;2.50;;;19.10;99.90;;;;;;6101532;23;20428;-69
2022/10/29 14:36:52;;;;;;;2.27;2.07;;;19.10;99.90;;;;;;6106704;23;20404;-70
2022/10/29 14:39:24;;;;;;;8.33;1.63;;;19.00;99.90;;;;;;6107600;23;20417;-69
2022/10/29 14:41:51;;;;;;;2.40;2.20;;;19.00;99.90;;;;;;6112342;23;20908;-69
2022/10/29 14:44:20;;;;;;;5.60;2.13;;;19.00;99.90;;;;;;6102515;23;20422;-68
2022/10/29 14:47:00;;;;;;;2.63;2.43;;;18.90;99.90;;;;;;6094285;23;20455;-68
2022/10/29 14:49:30;;;;;;;3.50;2.40;;;18.90;99.90;;;;;;6092981;23;20412;-69
2022/10/29 14:52:00;;;;;;;4.40;2.73;;;18.90;99.90;;;;;;6095539;23;20445;-69
2022/10/29 14:54:29;;;;;;;3.00;2.80;;;18.90;99.90;;;;;;6093595;23;20447;-69
2022/10/29 14:57:00;;;;;;;2.30;2.20;;;18.80;99.90;;;;;;6095255;23;20408;-69
2022/10/29 14:59:29;;;;;;;3.67;2.67;;;18.80;99.90;;;;;;6093580;23;20428;-70
2022/10/29 15:02:00;;;;;;;2.87;2.53;;;18.80;99.90;;;;;;6092204;23;20791;-70
2022/10/29 15:04:29;;;;;;;5.83;2.30;;;18.80;99.90;;;;;;6092438;23;20435;-68
2022/10/29 15:07:16;;;;;;;4.87;3.00;;;18.70;99.90;;;;;;6093252;23;20459;-68
2022/10/29 15:09:45;;;;;;;4.93;2.27;;;18.60;99.90;;;;;;6091253;23;20532;-68
2022/10/29 15:12:20;;;;;;;4.30;2.80;;;18.60;99.90;;;;;;6094112;23;20953;-68
2022/10/29 15:14:48;;;;;;;4.60;2.80;;;18.50;99.90;;;;;;6093325;23;20742;-68
2022/10/29 15:17:21;;;;;;;4.40;4.00;;;18.40;99.90;;;;;;6093234;23;20446;-68
2022/10/29 15:19:56;;;;;;;1.83;1.73;;;18.40;99.90;;;;;;6093672;23;20894;-68
2022/10/29 15:22:30;;;;;;;2.70;2.60;;;18.40;99.90;;;;;;6092860;23;20442;-69
2022/10/29 15:24:58;;;;;;;3.60;2.50;;;18.40;99.90;;;;;;6093270;23;20411;-68
2022/10/29 15:27:26;;;;;;;5.37;3.40;;;18.40;99.90;;;;;;6093556;23;20801;-68
2022/10/29 15:29:53;;;;;;;3.17;2.97;;;18.30;99.90;;;;;;6103197;23;20510;-69
2022/10/29 15:32:20;;;;;;;4.20;3.60;;;18.30;99.90;;;;;;6092592;23;20451;-68
2022/10/29 15:34:51;;;;;;;3.80;2.57;;;18.30;99.90;;;;;;6092670;23;20435;-68
2022/10/29 15:37:39;;;;;;;2.77;2.57;;;18.20;99.90;;;;;;6092011;23;20535;-69
2022/10/29 15:40:11;;;;;;;3.07;2.97;;;18.20;99.90;;;;;;6093284;23;20413;-68
2022/10/29 15:42:38;;;;;;;3.47;3.27;;;18.20;99.90;;;;;;6092598;23;20521;-68
2022/10/29 15:45:18;;;;;;;2.70;2.50;;;18.10;99.90;;;;;;6093072;23;20451;-69
2022/10/29 15:47:48;;;;;;;2.70;2.50;;;18.10;99.90;;;;;;6094266;23;20816;-68
2022/10/29 15:50:18;;;;;;;2.73;2.60;;;18.10;99.90;;;;;;6091926;23;20450;-68
2022/10/29 15:52:47;;;;;;;5.93;3.50;;;18.00;99.90;;;;;;6093312;23;20415;-69
2022/10/29 15:55:18;;;;;;;3.20;2.90;;;18.00;99.90;;;;;;6091533;23;20438;-68
2022/10/29 15:57:45;;;;;;;3.80;3.50;;;17.90;99.90;;;;;;6092976;23;20413;-69
2022/10/29 16:00:13;;;;;;;8.30;3.30;;;17.80;99.90;;;;;;6093354;23;20438;-69
2022/10/29 16:02:40;;;;;;;3.20;2.87;;;17.80;99.90;;;;;;6091297;23;20473;-68
2022/10/29 16:05:07;;;;;;;4.47;3.00;;;17.70;99.90;;;;;;6090371;23;20458;-68
2022/10/29 16:07:35;;;;;;;3.87;3.57;;;17.60;99.90;;;;;;6093805;23;20527;-68
2022/10/29 16:10:02;;;;;;;3.47;3.13;;;17.50;99.90;;;;;;6093474;23;20430;-68
2022/10/29 16:12:29;;;;;;;3.73;3.10;;;17.40;99.90;;;;;;6093884;23;20453;-68
2022/10/29 16:14:55;;;;;;;3.87;3.33;;;17.40;99.90;;;;;;6093131;23;20431;-69
2022/10/29 16:17:22;;;;;;;3.93;2.37;;;17.30;99.90;;;;;;6094394;23;20429;-68
2022/10/29 16:19:49;;;;;;;3.17;2.97;;;17.30;99.90;;;;;;6093898;23;20433;-69
2022/10/29 16:22:19;;;;;;;5.60;4.10;;;17.20;99.90;;;;;;6091562;23;20463;-68
2022/10/29 16:24:47;;;;;;;4.17;2.70;;;17.10;99.90;;;;;;6093484;23;20739;-69
2022/10/29 16:27:17;;;;;;;6.23;2.63;;;17.10;99.90;;;;;;6094029;23;20515;-69
2022/10/29 16:29:45;;;;;;;4.37;3.63;;;17.10;99.90;;;;;;6094070;23;20426;-67
2022/10/29 16:32:14;;;;;;;4.47;4.17;;;17.00;99.90;;;;;;6093110;23;20449;-69
2022/10/29 16:34:41;;;;;;;7.50;3.83;;;17.00;99.90;;;;;;6092144;23;20434;-69
2022/10/29 16:37:11;;;;;;;5.50;3.70;;;17.00;99.90;;;;;;6092453;23;20483;-69
2022/10/29 16:39:38;;;;;;;5.50;3.90;;;16.90;99.90;;;;;;6092492;23;20426;-69
2022/10/29 16:42:07;;;;;;;5.90;4.00;;;16.90;99.90;;;;;;6090176;23;20477;-70
2022/10/29 16:44:33;;;;;;;3.40;3.17;;;16.90;99.90;;;;;;6093169;23;20712;-69
2022/10/29 16:47:00;;;;;;;5.80;3.30;;;16.90;99.90;;;;;;6093423;23;20427;-69
2022/10/29 16:49:27;;;;;;;5.20;4.20;;;16.80;99.90;;;;;;6092868;23;20486;-69
2022/10/29 16:51:53;;;;;;;4.93;4.43;;;16.80;99.90;;;;;;6100110;23;20785;-70
2022/10/29 16:54:20;;;;;;;4.63;3.87;;;16.80;99.90;;;;;;6093294;23;20861;-70
2022/10/29 16:56:49;;;;;;;5.73;4.63;;;16.80;99.90;;;;;;6096676;23;20764;-71
2022/10/29 16:59:17;;;;;;;5.27;4.17;;;16.80;99.90;;;;;;6094794;23;20425;-71
2022/10/29 17:01:43;;;;;;;7.33;4.23;;;16.80;99.90;;;;;;6094544;23;20465;-69
2022/10/29 17:04:10;;;;;;;5.50;5.10;;;16.80;99.90;;;;;;6094747;23;20433;-70